Time;durP1;ratioP1;P1;durP2;ratioP2;P2;SDS_P1;SDS_P2;PMS_P1;PMS_P2;Temp;Humidity;BMP_temperature;BMP_pressure;BME280_temperature;BME280_humidity;BME280_pressure;Samples;Min_cycle;Max_cycle;Signal;HPM_P1;HPM_P2
2022/06/29 00:00:15;;;;;;;2.45;1.02;;;;;;;26.03;40.92;101573.59;4976379;28;96741;-71
2022/06/29 00:02:43;;;;;;;3.88;0.82;;;;;;;26.07;40.97;101571.44;4971135;28;97063;-71
2022/06/29 00:05:11;;;;;;;1.48;0.80;;;;;;;25.99;41.06;101572.13;4974820;28;98885;-71
2022/06/29 00:07:38;;;;;;;5.45;1.23;;;;;;;25.96;40.95;101569.69;4976510;28;98926;-71
2022/06/29 00:10:06;;;;;;;3.08;1.48;;;;;;;25.85;41.45;101568.91;4975165;28;97350;-71
2022/06/29 00:12:32;;;;;;;1.48;1.30;;;;;;;25.82;41.39;101570.03;4971761;28;97078;-71
2022/06/29 00:15:02;;;;;;;3.20;1.33;;;;;;;25.57;42.30;101570.41;4972900;28;98941;-70
2022/06/29 00:17:29;;;;;;;5.30;1.55;;;;;;;25.64;41.92;101571.63;4973171;28;98990;-71
2022/06/29 00:19:56;;;;;;;3.50;1.48;;;;;;;25.69;42.10;101572.94;4973907;28;96763;-71
2022/06/29 00:22:22;;;;;;;1.30;1.10;;;;;;;25.49;42.68;101572.88;4977153;28;96910;-71
2022/06/29 00:24:49;;;;;;;1.80;1.17;;;;;;;25.69;42.39;101561.25;4974528;28;98939;-70
2022/06/29 00:27:16;;;;;;;3.25;1.00;;;;;;;25.78;41.97;101558.63;4979569;28;98670;-70
2022/06/29 00:29:43;;;;;;;1.10;1.00;;;;;;;25.73;42.16;101550.03;4976487;28;96865;-71
2022/06/29 00:32:11;;;;;;;3.38;1.10;;;;;;;25.59;42.57;101547.69;4978992;28;97532;-71
2022/06/29 00:34:38;;;;;;;1.33;0.98;;;;;;;25.60;42.44;101546.66;4971275;28;100593;-70
2022/06/29 00:37:04;;;;;;;4.00;1.70;;;;;;;25.55;42.37;101540.75;4971438;28;97626;-70
2022/06/29 00:39:32;;;;;;;1.67;1.20;;;;;;;25.40;42.83;101542.91;4974801;28;96823;-71
2022/06/29 00:41:58;;;;;;;1.30;1.20;;;;;;;25.40;42.91;101545.63;4973530;28;96867;-71
2022/06/29 00:44:25;;;;;;;3.92;1.00;;;;;;;25.28;43.46;101543.09;4964327;28;98726;-70
2022/06/29 00:46:53;;;;;;;2.95;1.13;;;;;;;25.51;42.86;101533.91;4972303;28;100029;-71
2022/06/29 00:49:23;;;;;;;1.50;1.08;;;;;;;25.62;42.49;101531.16;4972087;28;98019;-70
2022/06/29 00:51:51;;;;;;;2.40;1.33;;;;;;;25.57;42.81;101514.47;4979390;28;96864;-70
2022/06/29 00:54:20;;;;;;;5.70;1.20;;;;;;;25.55;43.00;101512.84;4971728;28;98422;-70
2022/06/29 00:56:47;;;;;;;2.28;1.38;;;;;;;25.54;43.06;101511.97;4970456;28;98867;-72
2022/06/29 00:59:18;;;;;;;2.28;1.30;;;;;;;25.58;42.64;101510.78;4973230;28;97282;-70
2022/06/29 01:01:45;;;;;;;5.47;1.15;;;;;;;25.51;42.78;101511.41;4977403;28;97300;-71
2022/06/29 01:04:11;;;;;;;3.75;1.33;;;;;;;25.39;43.55;101518.72;4976642;28;99332;-70
2022/06/29 01:06:40;;;;;;;1.13;1.02;;;;;;;25.32;43.22;101525.66;4973758;28;98966;-71
2022/06/29 01:09:06;;;;;;;4.20;1.50;;;;;;;25.30;43.78;101520.34;4972792;28;96845;-71
2022/06/29 01:11:33;;;;;;;1.55;1.25;;;;;;;25.12;43.97;101523.78;4973550;28;96947;-71
2022/06/29 01:14:00;;;;;;;1.30;1.10;;;;;;;25.09;44.29;101519.47;4971148;28;101570;-71
2022/06/29 01:16:27;;;;;;;1.80;1.30;;;;;;;25.08;44.53;101520.44;4969936;28;99233;-71
2022/06/29 01:18:54;;;;;;;1.20;1.10;;;;;;;25.24;44.22;101511.91;4973145;28;96801;-72
2022/06/29 01:21:22;;;;;;;2.42;1.40;;;;;;;25.21;43.67;101512.16;4975917;28;97286;-71
2022/06/29 01:23:50;;;;;;;2.67;1.25;;;;;;;25.18;44.15;101509.72;4971637;28;97692;-71
2022/06/29 01:26:16;;;;;;;2.40;1.52;;;;;;;25.00;44.30;101506.75;4971943;28;98823;-71
2022/06/29 01:28:46;;;;;;;2.95;1.25;;;;;;;24.99;44.65;101500.47;4970627;28;98819;-71
2022/06/29 01:31:16;;;;;;;2.75;1.10;;;;;;;24.93;44.52;101516.34;4973343;28;97388;-71
2022/06/29 01:33:43;;;;;;;2.20;1.35;;;;;;;25.02;44.37;101515.56;4971303;28;99400;-71
2022/06/29 01:36:09;;;;;;;4.40;1.10;;;;;;;24.99;44.23;101508.59;4968789;28;98477;-71
2022/06/29 01:38:37;;;;;;;2.63;1.65;;;;;;;25.05;44.20;101509.91;4969839;28;97965;-71
2022/06/29 01:41:06;;;;;;;1.58;1.48;;;;;;;24.93;44.22;101503.69;4970535;28;96857;-71
2022/06/29 01:43:33;;;;;;;1.33;1.00;;;;;;;24.98;44.16;101504.16;4978532;28;99145;-71
2022/06/29 01:45:59;;;;;;;5.55;1.10;;;;;;;25.01;44.05;101514.69;4971684;28;97679;-71
2022/06/29 01:48:26;;;;;;;1.63;1.17;;;;;;;24.90;44.43;101514.75;4971306;28;97367;-70
2022/06/29 01:50:52;;;;;;;1.55;1.20;;;;;;;25.02;44.25;101515.56;4972833;28;98670;-71
2022/06/29 01:53:19;;;;;;;1.30;1.13;;;;;;;25.02;44.33;101515.56;4974111;28;98364;-71
2022/06/29 01:55:46;;;;;;;1.73;1.23;;;;;;;24.96;44.36;101514.22;4969850;28;99214;-72
2022/06/29 01:58:15;;;;;;;1.83;1.27;;;;;;;25.02;43.90;101520.97;4969913;28;98977;-71
2022/06/29 02:00:41;;;;;;;5.13;1.27;;;;;;;24.92;44.39;101509.22;4972413;28;96878;-71
2022/06/29 02:03:08;;;;;;;2.22;1.20;;;;;;;24.96;44.31;101513.38;4972872;28;99432;-71
2022/06/29 02:05:35;;;;;;;4.18;1.35;;;;;;;24.87;44.65;101516.81;4970874;28;99203;-71
2022/06/29 02:08:01;;;;;;;1.80;1.38;;;;;;;24.82;44.69;101514.50;4969573;28;98669;-71
2022/06/29 02:10:28;;;;;;;1.65;1.08;;;;;;;24.90;44.32;101513.88;4974494;28;96956;-71
2022/06/29 02:12:54;;;;;;;3.13;1.13;;;;;;;24.92;44.49;101504.69;4971924;28;99287;-71
2022/06/29 02:15:23;;;;;;;1.98;1.20;;;;;;;24.75;44.58;101510.56;4972651;28;99416;-70
2022/06/29 02:17:50;;;;;;;1.60;1.23;;;;;;;24.83;44.57;101509.94;4970000;28;99474;-70
2022/06/29 02:20:16;;;;;;;2.42;1.13;;;;;;;24.76;44.89;101498.78;4973021;28;96910;-70
2022/06/29 02:22:43;;;;;;;4.53;1.20;;;;;;;24.72;44.79;101502.75;4968100;28;99268;-70
2022/06/29 02:25:10;;;;;;;1.63;1.30;;;;;;;24.74;44.91;101502.63;4971468;28;99082;-70
2022/06/29 02:27:39;;;;;;;1.75;1.40;;;;;;;24.73;44.87;101503.59;4970498;28;97145;-70
2022/06/29 02:30:07;;;;;;;1.35;1.17;;;;;;;24.69;44.91;101502.97;4972917;28;97296;-70
2022/06/29 02:35:19;;;;;;;2.33;1.42;;;;;;;24.56;45.14;101518.47;4970316;28;97124;-69
2022/06/29 02:37:45;;;;;;;2.35;1.00;;;;;;;24.79;44.98;101517.47;4970290;28;97451;-68
2022/06/29 02:40:12;;;;;;;1.00;0.90;;;;;;;24.81;45.02;101525.44;4972334;28;98578;-71
2022/06/29 02:42:38;;;;;;;1.60;1.15;;;;;;;24.76;45.17;101520.41;4971222;28;101012;-71
2022/06/29 02:45:06;;;;;;;1.88;1.10;;;;;;;24.81;44.84;101526.28;4973485;28;97550;-70
2022/06/29 02:47:32;;;;;;;3.42;1.38;;;;;;;24.80;45.04;101521.88;4975233;28;97163;-70
2022/06/29 02:50:00;;;;;;;3.80;1.40;;;;;;;24.82;44.86;101516.31;4970803;28;97065;-72
2022/06/29 02:52:26;;;;;;;1.70;1.17;;;;;;;24.90;44.74;101516.59;4974931;28;99112;-70
2022/06/29 02:54:53;;;;;;;2.50;1.30;;;;;;;24.71;45.43;101505.56;4969665;28;98944;-71
2022/06/29 02:57:20;;;;;;;2.45;1.38;;;;;;;24.69;45.37;101508.38;4968981;28;97388;-72
2022/06/29 02:59:46;;;;;;;3.13;1.35;;;;;;;24.84;44.85;101507.13;4972150;28;97574;-71
2022/06/29 03:02:13;;;;;;;2.45;1.40;;;;;;;24.70;45.13;101509.25;4972161;28;99346;-71
2022/06/29 03:04:39;;;;;;;7.80;2.00;;;;;;;24.60;45.44;101507.31;4972409;28;99225;-71
2022/06/29 03:07:07;;;;;;;1.00;0.90;;;;;;;24.72;45.41;101507.28;4970246;28;97276;-72
2022/06/29 03:09:33;;;;;;;3.83;1.48;;;;;;;24.72;45.35;101507.28;4976158;28;99132;-70
2022/06/29 03:11:59;;;;;;;3.67;1.60;;;;;;;24.37;46.10;101515.56;4973811;28;99309;-69
2022/06/29 03:14:26;;;;;;;3.10;1.90;;;;;;;24.67;45.63;101518.47;4968659;28;101877;-71
2022/06/29 03:16:52;;;;;;;2.20;1.50;;;;;;;24.78;45.14;101521.16;4970351;28;97458;-70
2022/06/29 03:19:18;;;;;;;3.85;1.50;;;;;;;24.63;45.42;101508.88;4970796;28;98327;-69
2022/06/29 03:21:45;;;;;;;1.38;1.25;;;;;;;24.63;45.32;101520.56;4972139;28;98978;-70
2022/06/29 03:24:13;;;;;;;4.00;1.38;;;;;;;24.90;44.61;101522.84;4968570;28;101319;-70
2022/06/29 03:26:39;;;;;;;5.75;1.30;;;;;;;24.87;44.89;101523.09;4974565;28;97265;-71
2022/06/29 03:29:05;;;;;;;3.55;1.40;;;;;;;24.80;45.30;101516.47;4973328;28;98873;-70
2022/06/29 03:31:32;;;;;;;1.95;1.30;;;;;;;24.78;45.07;101510.34;4971180;28;97870;-71
2022/06/29 03:33:58;;;;;;;2.03;1.60;;;;;;;24.71;45.63;101517.22;4966082;28;99014;-71
2022/06/29 03:36:24;;;;;;;2.92;1.33;;;;;;;24.70;45.44;101509.25;4967614;28;98411;-70
2022/06/29 03:38:51;;;;;;;1.92;1.40;;;;;;;24.52;45.99;101508.94;4964190;28;97562;-70
2022/06/29 03:41:19;;;;;;;2.55;1.30;;;;;;;24.54;45.68;101501.56;4972828;28;99596;-70
2022/06/29 03:43:45;;;;;;;2.38;1.10;;;;;;;24.68;45.55;101508.53;4975280;28;99156;-70
2022/06/29 03:46:11;;;;;;;4.95;1.30;;;;;;;24.70;45.10;101510.09;4973414;28;97414;-70
2022/06/29 03:48:38;;;;;;;3.05;1.42;;;;;;;24.83;45.12;101512.66;4969690;28;97489;-70
2022/06/29 03:51:04;;;;;;;1.42;1.33;;;;;;;24.83;45.16;101510.81;4977415;28;97648;-71
2022/06/29 03:53:31;;;;;;;3.38;1.50;;;;;;;24.76;45.09;101508.72;4974832;28;99228;-70
2022/06/29 03:55:57;;;;;;;1.55;1.45;;;;;;;24.80;45.33;101511.06;4972624;28;97614;-70
2022/06/29 03:58:26;;;;;;;2.67;1.17;;;;;;;24.87;44.98;101515.00;4974206;28;97887;-70
2022/06/29 04:00:52;;;;;;;3.08;1.40;;;;;;;25.03;44.63;101517.28;4976479;28;101920;-71
2022/06/29 04:03:19;;;;;;;3.60;1.70;;;;;;;25.20;44.38;101507.75;4973069;28;98866;-69
2022/06/29 04:05:45;;;;;;;4.25;1.50;;;;;;;25.00;44.57;101522.97;4974848;28;97206;-72
2022/06/29 04:08:12;;;;;;;2.05;1.48;;;;;;;25.34;43.56;101523.66;4973079;28;97331;-72
2022/06/29 04:10:38;;;;;;;1.92;1.10;;;;;;;25.19;44.21;101528.53;4973526;28;98923;-71
2022/06/29 04:13:04;;;;;;;3.13;1.65;;;;;;;25.20;44.28;101529.41;4973497;28;98858;-70
2022/06/29 04:15:32;;;;;;;2.40;1.30;;;;;;;25.40;43.70;101523.97;4979856;28;97280;-71
2022/06/29 04:17:59;;;;;;;2.55;1.25;;;;;;;25.33;43.93;101530.94;4972526;28;98396;-70
2022/06/29 04:23:09;;;;;;;2.80;1.50;;;;;;;25.27;44.17;101544.94;4972318;28;97605;-71
2022/06/29 04:25:36;;;;;;;2.47;1.30;;;;;;;25.61;43.38;101540.25;4974230;28;97375;-69
2022/06/29 04:28:02;;;;;;;3.67;1.45;;;;;;;25.50;43.37;101534.88;4970961;28;98609;-70
2022/06/29 04:30:28;;;;;;;2.42;1.10;;;;;;;25.61;42.88;101528.56;4973178;28;98222;-70
2022/06/29 04:32:56;;;;;;;3.85;1.27;;;;;;;25.78;42.37;101541.53;4972665;28;98954;-69
2022/06/29 04:35:22;;;;;;;1.20;1.10;;;;;;;25.75;42.63;101528.25;4970907;28;97093;-70
2022/06/29 04:37:49;;;;;;;2.90;1.55;;;;;;;25.90;42.45;101535.03;4972923;28;96847;-70
2022/06/29 04:40:16;;;;;;;3.67;1.30;;;;;;;26.02;42.22;101531.25;4979657;28;99405;-69
2022/06/29 04:42:42;;;;;;;6.68;1.60;;;;;;;25.93;42.37;101528.50;4974924;28;98862;-70
2022/06/29 04:46:19;;;;;;;4.32;1.42;;;;;;;26.07;42.00;101528.13;4974468;28;96988;-70
2022/06/29 04:48:00;;;;;;;3.10;1.15;;;;;;;26.27;41.53;101531.81;4968043;28;97100;-69
2022/06/29 04:50:27;;;;;;;1.38;1.25;;;;;;;26.25;41.58;101531.97;4972746;28;99279;-70
2022/06/29 04:52:54;;;;;;;4.95;1.45;;;;;;;26.45;41.36;101541.84;4972656;28;99123;-72
2022/06/29 04:55:21;;;;;;;1.92;1.30;;;;;;;26.60;41.12;101534.19;4974085;28;98667;-71
2022/06/29 04:57:47;;;;;;;5.70;1.48;;;;;;;26.36;41.46;101542.69;4971561;28;96908;-71
2022/06/29 05:00:14;;;;;;;4.72;1.73;;;;;;;26.48;41.62;101544.31;4973576;28;98956;-71
2022/06/29 05:02:41;;;;;;;3.65;1.45;;;;;;;26.87;41.00;101541.66;4970403;28;98832;-70
2022/06/29 05:05:09;;;;;;;5.22;1.30;;;;;;;27.41;39.98;101557.44;4974560;28;97291;-70
2022/06/29 05:07:36;;;;;;;2.30;1.77;;;;;;;28.85;37.44;101553.44;4971393;28;98064;-71
2022/06/29 05:10:02;;;;;;;4.40;1.40;;;;;;;29.15;36.31;101560.38;4972393;28;97752;-71
2022/06/29 05:12:29;;;;;;;2.80;1.38;;;;;;;29.57;34.61;101553.31;4968600;28;97706;-71
2022/06/29 05:14:55;;;;;;;3.45;1.42;;;;;;;29.20;35.46;101550.75;4971530;28;98602;-69
2022/06/29 05:17:23;;;;;;;2.85;1.55;;;;;;;29.44;35.27;101547.44;4969374;28;97032;-70
2022/06/29 05:19:49;;;;;;;1.55;1.13;;;;;;;31.34;31.56;101551.59;4965089;28;100414;-71
2022/06/29 05:22:20;;;;;;;2.85;1.40;;;;;;;30.81;31.81;101535.63;4978610;28;99048;-70
2022/06/29 05:24:47;;;;;;;5.90;1.60;;;;;;;29.85;33.85;101543.16;4974272;28;97059;-72
2022/06/29 05:27:13;;;;;;;2.70;1.10;;;;;;;29.35;34.51;101537.47;4971596;28;97069;-71
2022/06/29 05:29:40;;;;;;;3.58;1.10;;;;;;;29.04;35.56;101541.56;4974552;28;98974;-72
2022/06/29 05:32:09;;;;;;;8.40;1.38;;;;;;;28.95;35.83;101540.63;4967000;28;98707;-71
2022/06/29 05:34:35;;;;;;;2.30;1.30;;;;;;;28.67;36.08;101528.94;4965945;28;97559;-72
2022/06/29 05:37:02;;;;;;;1.95;1.30;;;;;;;28.55;36.33;101517.38;4966181;28;97826;-71
2022/06/29 05:39:30;;;;;;;4.13;1.58;;;;;;;28.44;36.77;101514.88;4969916;28;99412;-69
2022/06/29 05:41:56;;;;;;;4.57;1.20;;;;;;;28.34;36.84;101510.50;4967337;28;101321;-71
2022/06/29 05:44:23;;;;;;;6.10;2.28;;;;;;;28.20;36.47;101511.00;4970453;28;98689;-71
2022/06/29 05:46:49;;;;;;;3.05;1.30;;;;;;;28.32;36.44;101507.06;4965633;28;97226;-70
2022/06/29 05:49:16;;;;;;;2.85;1.10;;;;;;;28.40;36.46;101515.34;4972422;28;99233;-70
2022/06/29 05:51:42;;;;;;;2.78;0.95;;;;;;;28.49;35.98;101512.56;4973912;28;99301;-70
2022/06/29 05:54:09;;;;;;;2.08;1.40;;;;;;;28.14;36.30;101513.31;4972716;28;97013;-70
2022/06/29 05:56:37;;;;;;;3.55;1.30;;;;;;;28.33;35.94;101512.38;4967810;28;96873;-71
2022/06/29 05:59:03;;;;;;;6.70;1.48;;;;;;;28.29;36.12;101519.09;4970164;28;101632;-70
2022/06/29 06:01:30;;;;;;;3.22;1.10;;;;;;;28.38;35.72;101520.06;4970922;28;100741;-72
2022/06/29 06:03:56;;;;;;;2.67;1.20;;;;;;;28.46;35.33;101515.59;4973189;28;97536;-71
2022/06/29 06:06:22;;;;;;;6.18;1.15;;;;;;;28.49;35.22;101519.84;4973707;28;97568;-71
2022/06/29 06:08:50;;;;;;;2.10;1.17;;;;;;;28.49;34.65;101509.84;4981196;28;99015;-71
2022/06/29 06:11:16;;;;;;;2.58;1.10;;;;;;;28.55;34.55;101516.56;4974062;28;98846;-71
2022/06/29 06:13:44;;;;;;;5.13;1.30;;;;;;;28.44;34.62;101524.91;4974523;28;97030;-70
2022/06/29 06:16:13;;;;;;;2.10;1.15;;;;;;;28.58;34.62;101521.66;4971819;28;96817;-70
2022/06/29 06:18:43;;;;;;;2.47;1.05;;;;;;;29.02;33.91;101513.66;4973242;28;98953;-72
2022/06/29 06:21:09;;;;;;;2.10;1.20;;;;;;;29.14;33.50;101507.84;4973203;28;98328;-71
2022/06/29 06:23:36;;;;;;;4.20;1.30;;;;;;;29.07;33.01;101495.03;4979716;28;97231;-70
2022/06/29 06:26:02;;;;;;;6.40;1.25;;;;;;;28.69;33.84;101496.13;4974010;28;96896;-74
2022/06/29 06:28:29;;;;;;;6.45;1.23;;;;;;;28.59;34.27;101507.06;4968305;28;97565;-75
2022/06/29 06:30:56;;;;;;;8.75;1.58;;;;;;;28.81;33.62;101508.53;4971935;28;99155;-73
2022/06/29 06:33:23;;;;;;;2.83;1.10;;;;;;;28.63;32.64;101500.31;4972373;28;98444;-74
2022/06/29 06:35:50;;;;;;;2.03;1.48;;;;;;;28.70;32.61;101503.28;4976500;28;97051;-74
2022/06/29 06:38:16;;;;;;;3.35;1.13;;;;;;;28.60;31.77;101492.47;4971507;28;97356;-74
2022/06/29 06:43:39;;;;;;;2.88;0.80;;;;;;;28.50;32.05;101483.50;4928847;28;97420;-75
2022/06/29 06:46:06;;;;;;;3.28;0.90;;;;;;;28.37;33.25;101499.31;4963524;28;96937;-75
2022/06/29 06:48:33;;;;;;;4.47;1.05;;;;;;;28.53;33.21;101494.94;4973869;28;100234;-76
2022/06/29 06:50:59;;;;;;;3.60;0.98;;;;;;;28.87;32.67;101495.19;4973642;28;98198;-75
2022/06/29 06:53:26;;;;;;;2.00;1.10;;;;;;;28.76;32.65;101497.25;4971986;28;97217;-74
2022/06/29 06:55:53;;;;;;;3.30;1.30;;;;;;;28.65;32.68;101492.00;4972017;28;97504;-74
2022/06/29 06:58:20;;;;;;;1.63;0.93;;;;;;;29.04;32.22;101489.88;4978682;28;98197;-73
2022/06/29 07:00:47;;;;;;;2.65;1.13;;;;;;;29.28;31.46;101488.22;4969486;28;101884;-75
2022/06/29 07:03:14;;;;;;;2.55;0.88;;;;;;;29.30;31.44;101485.34;4980827;28;97226;-75
2022/06/29 07:05:41;;;;;;;2.78;0.90;;;;;;;29.51;30.69;101487.75;4972235;28;97345;-74
2022/06/29 07:08:08;;;;;;;2.00;1.10;;;;;;;29.27;31.09;101486.53;4970765;28;101820;-74
2022/06/29 07:10:35;;;;;;;7.22;1.45;;;;;;;29.86;30.39;101497.69;4974444;28;97619;-74
2022/06/29 07:13:01;;;;;;;4.50;0.98;;;;;;;29.79;30.28;101486.59;4972348;28;97112;-74
2022/06/29 07:15:31;;;;;;;2.60;1.10;;;;;;;29.65;30.27;101488.03;4971861;28;96950;-74
2022/06/29 07:17:58;;;;;;;6.68;1.30;;;;;;;29.58;30.27;101480.66;4972408;28;102321;-70
2022/06/29 07:20:28;;;;;;;2.78;0.70;;;;;;;29.65;29.57;101485.31;4972126;28;99371;-71
2022/06/29 07:22:55;;;;;;;2.08;0.93;;;;;;;29.87;29.81;101485.75;4973930;28;97653;-71
2022/06/29 07:25:21;;;;;;;1.75;0.90;;;;;;;29.71;29.08;101479.22;4973726;28;98306;-71
2022/06/29 07:27:48;;;;;;;3.60;0.90;;;;;;;29.84;29.54;101481.50;4972498;28;98947;-71
2022/06/29 07:30:14;;;;;;;5.35;1.00;;;;;;;29.86;29.52;101481.34;4978482;28;97623;-72
2022/06/29 07:32:41;;;;;;;4.60;1.20;;;;;;;29.44;29.04;101476.63;4974016;28;97366;-71
2022/06/29 07:35:08;;;;;;;2.10;0.90;;;;;;;29.57;29.42;101471.63;4976053;28;97249;-72
2022/06/29 07:37:36;;;;;;;2.67;0.98;;;;;;;29.53;29.60;101470.25;4971494;28;98932;-71
2022/06/29 07:40:02;;;;;;;3.08;1.13;;;;;;;29.69;29.46;101470.34;4974799;28;98961;-70
2022/06/29 07:42:31;;;;;;;3.42;1.30;;;;;;;29.92;28.79;101467.97;4973605;28;96785;-72
2022/06/29 07:44:57;;;;;;;2.65;1.02;;;;;;;29.93;27.84;101466.09;4975001;28;97235;-72
2022/06/29 07:47:24;;;;;;;1.88;0.93;;;;;;;29.98;28.09;101466.44;4971578;28;99484;-71
2022/06/29 07:49:50;;;;;;;3.70;1.30;;;;;;;29.91;28.38;101465.34;4973674;28;101149;-71
2022/06/29 07:52:16;;;;;;;4.20;1.05;;;;;;;30.11;27.76;101461.41;4973399;28;97146;-71
2022/06/29 07:54:44;;;;;;;5.15;1.30;;;;;;;29.70;27.62;101458.44;4971614;28;96946;-72
2022/06/29 07:57:11;;;;;;;4.18;1.05;;;;;;;30.23;27.87;101454.63;4971998;28;99104;-71
2022/06/29 07:59:37;;;;;;;2.38;0.85;;;;;;;30.56;26.55;101444.72;4976919;28;101886;-72
2022/06/29 08:02:04;;;;;;;7.50;1.02;;;;;;;30.30;26.77;101447.50;4967894;28;97993;-71
2022/06/29 08:04:30;;;;;;;7.13;0.95;;;;;;;30.49;26.70;101444.53;4970284;28;101923;-71
2022/06/29 08:06:57;;;;;;;3.88;0.73;;;;;;;30.71;25.87;101439.44;4976311;28;99339;-71
2022/06/29 08:09:24;;;;;;;3.25;1.08;;;;;;;30.83;25.60;101440.81;4973938;28;98963;-72
2022/06/29 08:11:51;;;;;;;3.50;1.10;;;;;;;31.00;25.72;101442.53;4978347;28;96918;-71
2022/06/29 08:14:18;;;;;;;3.03;0.80;;;;;;;31.19;25.46;101449.53;4977892;28;97226;-71
2022/06/29 08:16:45;;;;;;;2.05;0.77;;;;;;;31.47;25.32;101439.09;4976879;28;101536;-72
2022/06/29 08:19:11;;;;;;;2.17;0.70;;;;;;;31.13;25.63;101437.44;4979583;28;101297;-71
2022/06/29 08:21:37;;;;;;;2.15;0.80;;;;;;;31.41;25.34;101440.66;4974455;28;96769;-71
2022/06/29 08:24:04;;;;;;;3.72;0.90;;;;;;;31.40;24.91;101440.81;4981183;28;96812;-71
2022/06/29 08:26:31;;;;;;;4.03;0.75;;;;;;;31.31;24.54;101447.34;4980388;28;98962;-70
2022/06/29 08:28:58;;;;;;;4.38;1.00;;;;;;;31.46;24.85;101453.78;4978040;28;99177;-71
2022/06/29 08:31:25;;;;;;;1.65;0.77;;;;;;;31.56;24.92;101443.53;4979660;28;96836;-72
2022/06/29 08:33:52;;;;;;;3.92;0.90;;;;;;;31.93;24.66;101441.06;4977956;28;97263;-72
2022/06/29 08:36:18;;;;;;;2.22;1.00;;;;;;;31.80;24.56;101443.50;4978800;28;99372;-71
2022/06/29 08:38:45;;;;;;;3.65;0.82;;;;;;;31.75;24.65;101443.19;4975761;28;99178;-71
2022/06/29 08:41:13;;;;;;;7.15;0.85;;;;;;;31.67;23.82;101444.06;4978675;28;97204;-71
2022/06/29 08:43:39;;;;;;;4.15;0.75;;;;;;;31.84;23.05;101444.84;4981008;28;96775;-71
2022/06/29 08:46:07;;;;;;;7.28;0.85;;;;;;;31.60;22.41;101440.31;4976798;28;98309;-73
2022/06/29 08:48:34;;;;;;;3.88;1.00;;;;;;;31.66;22.89;101452.41;4980156;28;98080;-72
2022/06/29 08:51:01;;;;;;;3.78;0.80;;;;;;;31.79;23.52;101441.78;4976771;28;97116;-72
2022/06/29 08:53:28;;;;;;;4.78;1.27;;;;;;;31.78;22.64;101440.09;4980694;28;97363;-72
2022/06/29 08:55:55;;;;;;;2.65;0.80;;;;;;;31.87;22.18;101433.56;4975627;28;97005;-72
2022/06/29 08:58:24;;;;;;;2.55;0.70;;;;;;;31.82;23.26;101437.88;4976524;28;99154;-72
2022/06/29 09:00:52;;;;;;;3.53;0.88;;;;;;;31.66;22.62;101433.28;4975688;28;97066;-72
2022/06/29 09:03:21;;;;;;;2.03;0.68;;;;;;;31.56;22.64;101428.00;4978021;28;96887;-71
2022/06/29 09:05:48;;;;;;;1.63;0.60;;;;;;;31.44;22.66;101434.00;4977419;28;99981;-72
2022/06/29 09:08:15;;;;;;;2.92;0.75;;;;;;;31.54;23.10;101440.13;4976834;28;99673;-72
2022/06/29 09:10:41;;;;;;;2.28;1.10;;;;;;;31.92;22.73;101441.22;4980492;28;97359;-72
2022/06/29 09:13:08;;;;;;;5.00;0.80;;;;;;;32.41;22.88;101439.16;4976783;28;96878;-71
2022/06/29 09:15:38;;;;;;;4.30;1.00;;;;;;;32.41;22.67;101433.69;4975304;28;98269;-72
2022/06/29 09:18:25;;;;;;;1.45;0.90;;;;;;;32.10;22.39;101430.91;4974366;28;98788;-72
2022/06/29 09:20:55;;;;;;;2.45;0.88;;;;;;;31.82;22.58;101429.66;4975614;28;96790;-70
2022/06/29 09:23:21;;;;;;;4.03;0.60;;;;;;;32.29;22.66;101437.88;4976859;28;96887;-72
2022/06/29 09:25:48;;;;;;;2.22;0.70;;;;;;;32.26;22.48;101436.34;4973357;28;99261;-72
2022/06/29 09:28:26;;;;;;;2.30;0.80;;;;;;;32.30;21.88;101431.34;4974169;28;97634;-72
2022/06/29 09:30:57;;;;;;;3.53;0.90;;;;;;;32.82;22.13;101435.13;4974736;28;96885;-72
2022/06/29 09:33:26;;;;;;;5.90;1.20;;;;;;;32.68;21.30;101433.22;4979334;28;97388;-71
2022/06/29 09:36:05;;;;;;;12.20;1.42;;;;;;;32.23;21.61;101424.91;4974902;28;99260;-71
2022/06/29 09:38:32;;;;;;;1.77;0.77;;;;;;;32.12;21.65;101425.25;4974857;28;100481;-70
2022/06/29 09:41:00;;;;;;;2.00;0.73;;;;;;;32.40;22.02;101421.91;4978004;28;97549;-71
2022/06/29 09:43:27;;;;;;;3.35;1.10;;;;;;;32.29;21.66;101416.00;4975727;28;97169;-71
2022/06/29 09:45:55;;;;;;;3.20;0.70;;;;;;;32.37;22.00;101413.19;4975952;28;97953;-71
2022/06/29 09:48:23;;;;;;;4.30;0.70;;;;;;;32.41;21.71;101409.94;4974428;28;98917;-71
2022/06/29 09:50:52;;;;;;;13.65;1.20;;;;;;;32.63;22.10;101413.69;4974486;28;96878;-72
2022/06/29 09:53:24;;;;;;;4.38;0.95;;;;;;;32.61;22.26;101415.78;4975457;28;96803;-73
2022/06/29 09:55:54;;;;;;;3.70;1.00;;;;;;;32.66;21.71;101412.50;4977516;28;99366;-71
2022/06/29 09:58:34;;;;;;;8.45;1.13;;;;;;;32.61;22.24;101409.47;4981187;28;99693;-69
2022/06/29 10:03:50;;;;;;;2.10;0.60;;;;;;;31.86;21.56;101398.22;4974928;28;97288;-72
2022/06/29 10:06:18;;;;;;;2.25;0.90;;;;;;;31.53;22.29;101395.56;4970681;28;99308;-71
2022/06/29 10:08:46;;;;;;;1.30;0.88;;;;;;;31.70;22.53;101404.63;4976891;28;98948;-71
2022/06/29 10:14:14;;;;;;;4.70;0.80;;;;;;;31.22;23.53;101400.06;4979349;28;96828;-72
2022/06/29 10:16:48;;;;;;;2.55;0.90;;;;;;;31.34;23.64;101398.69;4971872;28;100275;-71
2022/06/29 10:19:38;;;;;;;2.65;0.75;;;;;;;31.49;23.32;101393.38;4976417;28;97629;-71
2022/06/29 10:22:06;;;;;;;3.42;0.75;;;;;;;31.73;23.35;101396.06;4972482;28;97324;-73
2022/06/29 10:24:32;;;;;;;3.63;0.90;;;;;;;31.78;23.06;101399.09;4973286;28;97658;-70
2022/06/29 10:27:06;;;;;;;4.80;1.10;;;;;;;32.01;23.83;101402.78;4972029;28;99013;-71
2022/06/29 10:29:35;;;;;;;3.25;0.70;;;;;;;32.14;22.57;101387.69;4973869;28;102454;-71
2022/06/29 10:32:13;;;;;;;3.95;0.80;;;;;;;32.15;22.99;101389.41;4974093;28;96766;-71
2022/06/29 10:37:32;;;;;;;2.42;0.80;;;;;;;31.73;22.95;101381.53;4960741;28;97604;-71
2022/06/29 10:40:05;;;;;;;3.30;0.70;;;;;;;31.74;23.42;101383.25;4975017;28;98900;-71
2022/06/29 10:45:25;;;;;;;4.22;0.98;;;;;;;31.70;23.09;101370.97;4972196;28;97617;-71
2022/06/29 10:48:26;;;;;;;1.38;0.70;;;;;;;31.98;22.40;101372.19;4976403;28;99248;-71
2022/06/29 10:50:53;;;;;;;0.63;0.50;;;;;;;32.14;22.56;101366.69;4973257;28;98881;-71
2022/06/29 10:53:24;;;;;;;1.75;1.00;;;;;;;32.25;22.00;101371.72;4978859;28;96780;-71
2022/06/29 10:55:52;;;;;;;8.40;4.18;;;;;;;32.33;21.39;101374.44;4975852;28;97415;-71
2022/06/29 10:58:20;;;;;;;5.22;0.82;;;;;;;32.86;22.07;101366.34;4975118;28;98975;-70
2022/06/29 11:00:50;;;;;;;5.90;1.33;;;;;;;32.74;22.41;101361.34;4978280;28;96735;-71
2022/06/29 11:03:18;;;;;;;2.50;0.90;;;;;;;32.67;22.62;101360.38;4974463;28;96890;-71
2022/06/29 11:12:03;;;;;;;2.97;0.80;;;;;;;32.41;23.49;101352.50;4910781;28;96812;-73
2022/06/29 11:17:39;;;;;;;3.33;0.95;;;;;;;31.90;24.03;101356.69;4943661;28;99133;-72
2022/06/29 11:20:00;;;;;;;7.82;1.10;;;;;;;31.81;23.41;101356.91;4966582;28;98631;-74
2022/06/29 11:22:27;;;;;;;6.82;1.05;;;;;;;32.02;22.48;101354.44;4976804;28;97871;-73
2022/06/29 11:24:57;;;;;;;2.65;0.70;;;;;;;32.22;22.39;101357.59;4977126;28;97214;-73
2022/06/29 11:27:37;;;;;;;2.05;0.80;;;;;;;32.00;22.62;101351.88;4972862;28;97120;-73
2022/06/29 11:30:07;;;;;;;0.95;0.50;;;;;;;32.25;22.73;101352.59;4975491;28;97834;-70
2022/06/29 11:32:36;;;;;;;0.70;0.55;;;;;;;32.04;23.03;101347.72;4973280;28;99104;-71
2022/06/29 11:35:03;;;;;;;7.53;1.10;;;;;;;32.34;22.79;101343.31;4977272;28;96747;-71
2022/06/29 11:37:30;;;;;;;5.85;1.40;;;;;;;32.13;23.68;101343.06;4973474;28;97488;-71
2022/06/29 11:39:58;;;;;;;4.03;0.90;;;;;;;32.27;23.66;101336.00;4971552;28;101588;-70
2022/06/29 11:45:14;;;;;;;1.45;0.70;;;;;;;32.52;22.91;101325.75;4970725;28;96905;-72
2022/06/29 11:47:50;;;;;;;3.78;0.90;;;;;;;32.78;22.91;101328.97;4974254;28;97432;-70
2022/06/29 11:50:16;;;;;;;2.50;0.70;;;;;;;33.00;23.03;101319.88;4976864;28;99565;-71
2022/06/29 11:52:45;;;;;;;1.83;0.73;;;;;;;33.37;22.40;101318.97;4972226;28;97909;-71
2022/06/29 11:55:13;;;;;;;1.75;0.70;;;;;;;33.61;21.20;101313.16;4975788;28;97265;-70
2022/06/29 11:57:40;;;;;;;3.03;0.98;;;;;;;33.76;21.46;101306.84;4970763;28;96783;-72